Flight Briefing for CPX251

Departure Arrival
Ted Stevens Anchorage International Airport (PANC)
Click to view FAA NOTAMS
Huntsville International Airport (KHSV)
Click to view FAA NOTAMS
Departure Time Arrival Time
N/A N/A
Aircraft Distance
B767-300BDSF 2850nm
Departure METAR Arrival METAR
PANC 250353Z 33003KT 10SM FEW050 SCT060 SCT120 17/06 A3017 RMK AO2 SLP217 T01670056 KHSV 250353Z 17004KT 10SM CLR 26/21 A3009 RMK AO2 SLP179 T02560211
Suggested Route
TED YESKA NCA13 YXY J515 YYE J537 YPE J601 XD YWV J475 VLN J483 MOT ABR Q19 DSM J45 IRK FAM J151 VUZ


View recent IFR Routes data
Notes



Charts and Procedures

Charts for PANC
No chart available
Charts for KHSV
No chart available

Windy.com Weather Map